sensor_id;sensor_type;location;lat;lon;timestamp;temperature;humidity
22607;DHT22;11470;20.968;105.834;2022-07-22T00:02:04;26.10;1.00
22607;DHT22;11470;20.968;105.834;2022-07-22T00:07:10;26.20;1.00
22607;DHT22;11470;20.968;105.834;2022-07-22T00:12:15;26.40;99.90
22607;DHT22;11470;20.968;105.834;2022-07-22T00:17:21;26.60;99.90
22607;DHT22;11470;20.968;105.834;2022-07-22T00:22:26;26.90;1.00
22607;DHT22;11470;20.968;105.834;2022-07-22T00:27:31;27.00;1.00
22607;DHT22;11470;20.968;105.834;2022-07-22T00:32:37;27.00;1.00
22607;DHT22;11470;20.968;105.834;2022-07-22T00:37:43;27.20;1.00
22607;DHT22;11470;20.968;105.834;2022-07-22T00:42:48;27.70;99.90
22607;DHT22;11470;20.968;105.834;2022-07-22T00:47:53;27.60;99.90
22607;DHT22;11470;20.968;105.834;2022-07-22T00:52:59;27.70;99.90
22607;DHT22;11470;20.968;105.834;2022-07-22T00:58:04;28.00;99.90
22607;DHT22;11470;20.968;105.834;2022-07-22T01:03:10;28.50;99.90
22607;DHT22;11470;20.968;105.834;2022-07-22T01:08:17;28.50;99.90
22607;DHT22;11470;20.968;105.834;2022-07-22T01:13:23;28.70;99.90
22607;DHT22;11470;20.968;105.834;2022-07-22T01:18:29;28.90;99.90
22607;DHT22;11470;20.968;105.834;2022-07-22T01:23:35;28.70;99.90
22607;DHT22;11470;20.968;105.834;2022-07-22T01:28:42;28.40;99.90
22607;DHT22;11470;20.968;105.834;2022-07-22T01:33:48;28.30;99.90
22607;DHT22;11470;20.968;105.834;2022-07-22T01:38:55;28.20;99.90
22607;DHT22;11470;20.968;105.834;2022-07-22T01:44:01;28.30;99.90
22607;DHT22;11470;20.968;105.834;2022-07-22T01:49:08;28.60;99.90
22607;DHT22;11470;20.968;105.834;2022-07-22T01:54:15;28.80;99.90
22607;DHT22;11470;20.968;105.834;2022-07-22T01:59:21;29.10;99.90
22607;DHT22;11470;20.968;105.834;2022-07-22T02:04:26;29.30;99.90
22607;DHT22;11470;20.968;105.834;2022-07-22T02:09:31;29.40;99.90
22607;DHT22;11470;20.968;105.834;2022-07-22T02:14:37;30.40;99.90
22607;DHT22;11470;20.968;105.834;2022-07-22T02:19:43;31.50;99.90
22607;DHT22;11470;20.968;105.834;2022-07-22T02:24:49;32.20;99.90
22607;DHT22;11470;20.968;105.834;2022-07-22T02:29:55;32.90;99.90
22607;DHT22;11470;20.968;105.834;2022-07-22T02:35:01;33.50;99.90
22607;DHT22;11470;20.968;105.834;2022-07-22T02:40:07;33.70;99.90
22607;DHT22;11470;20.968;105.834;2022-07-22T02:45:14;33.80;99.90
22607;DHT22;11470;20.968;105.834;2022-07-22T02:50:21;33.00;99.90
22607;DHT22;11470;20.968;105.834;2022-07-22T02:55:30;32.10;99.90
22607;DHT22;11470;20.968;105.834;2022-07-22T03:00:39;32.10;99.90
22607;DHT22;11470;20.968;105.834;2022-07-22T03:05:49;32.30;99.90
22607;DHT22;11470;20.968;105.834;2022-07-22T03:11:00;32.30;99.90
22607;DHT22;11470;20.968;105.834;2022-07-22T03:16:06;32.90;99.90
22607;DHT22;11470;20.968;105.834;2022-07-22T03:21:13;33.10;99.90
22607;DHT22;11470;20.968;105.834;2022-07-22T03:26:21;33.70;99.90
22607;DHT22;11470;20.968;105.834;2022-07-22T03:31:34;34.50;99.90
22607;DHT22;11470;20.968;105.834;2022-07-22T03:37:04;33.60;99.90
22607;DHT22;11470;20.968;105.834;2022-07-22T03:42:16;32.70;99.90
22607;DHT22;11470;20.968;105.834;2022-07-22T03:47:23;33.40;99.90
22607;DHT22;11470;20.968;105.834;2022-07-22T03:52:29;33.40;99.90
22607;DHT22;11470;20.968;105.834;2022-07-22T03:57:37;32.80;99.90
22607;DHT22;11470;20.968;105.834;2022-07-22T04:02:51;32.80;99.90
22607;DHT22;11470;20.968;105.834;2022-07-22T04:08:17;33.00;99.90
22607;DHT22;11470;20.968;105.834;2022-07-22T04:13:23;33.10;99.90
22607;DHT22;11470;20.968;105.834;2022-07-22T04:18:31;33.20;99.90
22607;DHT22;11470;20.968;105.834;2022-07-22T04:23:37;33.00;99.90
22607;DHT22;11470;20.968;105.834;2022-07-22T04:29:03;32.90;99.90
22607;DHT22;11470;20.968;105.834;2022-07-22T04:34:09;32.90;99.90
22607;DHT22;11470;20.968;105.834;2022-07-22T04:39:15;32.70;99.90
22607;DHT22;11470;20.968;105.834;2022-07-22T04:44:26;32.80;99.90
22607;DHT22;11470;20.968;105.834;2022-07-22T04:49:32;33.20;99.90
22607;DHT22;11470;20.968;105.834;2022-07-22T04:54:41;33.70;99.90
22607;DHT22;11470;20.968;105.834;2022-07-22T04:59:46;33.70;99.90
22607;DHT22;11470;20.968;105.834;2022-07-22T05:04:52;34.80;99.90
22607;DHT22;11470;20.968;105.834;2022-07-22T05:10:03;35.70;99.90
22607;DHT22;11470;20.968;105.834;2022-07-22T05:15:10;37.30;99.90
22607;DHT22;11470;20.968;105.834;2022-07-22T05:20:17;36.60;99.90
22607;DHT22;11470;20.968;105.834;2022-07-22T05:25:23;35.70;99.90
22607;DHT22;11470;20.968;105.834;2022-07-22T05:30:29;36.60;99.90
22607;DHT22;11470;20.968;105.834;2022-07-22T05:35:37;38.70;99.90
22607;DHT22;11470;20.968;105.834;2022-07-22T05:40:46;38.40;99.90
22607;DHT22;11470;20.968;105.834;2022-07-22T05:45:53;40.20;99.90
22607;DHT22;11470;20.968;105.834;2022-07-22T05:51:13;39.00;99.90
22607;DHT22;11470;20.968;105.834;2022-07-22T05:56:27;37.70;99.90
22607;DHT22;11470;20.968;105.834;2022-07-22T06:01:47;37.10;99.90
22607;DHT22;11470;20.968;105.834;2022-07-22T06:07:16;35.70;99.90
22607;DHT22;11470;20.968;105.834;2022-07-22T06:12:27;35.70;99.90
22607;DHT22;11470;20.968;105.834;2022-07-22T06:17:33;34.90;99.90
22607;DHT22;11470;20.968;105.834;2022-07-22T06:22:42;34.10;99.90
22607;DHT22;11470;20.968;105.834;2022-07-22T06:27:47;35.30;99.90
22607;DHT22;11470;20.968;105.834;2022-07-22T06:32:53;36.80;99.90
22607;DHT22;11470;20.968;105.834;2022-07-22T06:37:59;37.40;99.90
22607;DHT22;11470;20.968;105.834;2022-07-22T06:43:43;38.10;99.90
22607;DHT22;11470;20.968;105.834;2022-07-22T06:49:06;39.80;99.90
22607;DHT22;11470;20.968;105.834;2022-07-22T06:54:38;40.20;99.90
22607;DHT22;11470;20.968;105.834;2022-07-22T06:59:43;42.40;99.90
22607;DHT22;11470;20.968;105.834;2022-07-22T07:04:49;43.50;99.90
22607;DHT22;11470;20.968;105.834;2022-07-22T07:10:00;43.30;99.90
22607;DHT22;11470;20.968;105.834;2022-07-22T07:15:30;43.10;99.90
22607;DHT22;11470;20.968;105.834;2022-07-22T07:20:41;43.10;99.90
22607;DHT22;11470;20.968;105.834;2022-07-22T07:25:50;40.30;99.90
22607;DHT22;11470;20.968;105.834;2022-07-22T07:30:56;38.50;99.90
22607;DHT22;11470;20.968;105.834;2022-07-22T07:36:06;37.50;99.90
22607;DHT22;11470;20.968;105.834;2022-07-22T07:46:56;34.70;99.90
22607;DHT22;11470;20.968;105.834;2022-07-22T07:52:13;33.40;99.90
22607;DHT22;11470;20.968;105.834;2022-07-22T07:57:22;32.70;99.90
22607;DHT22;11470;20.968;105.834;2022-07-22T08:02:36;32.20;99.90
22607;DHT22;11470;20.968;105.834;2022-07-22T08:07:45;31.70;99.90
22607;DHT22;11470;20.968;105.834;2022-07-22T08:12:51;30.70;99.90
22607;DHT22;11470;20.968;105.834;2022-07-22T08:18:21;29.90;99.90
22607;DHT22;11470;20.968;105.834;2022-07-22T08:23:27;29.20;99.90
22607;DHT22;11470;20.968;105.834;2022-07-22T08:28:34;28.40;99.90
22607;DHT22;11470;20.968;105.834;2022-07-22T08:33:43;27.60;99.90
22607;DHT22;11470;20.968;105.834;2022-07-22T08:39:00;26.80;99.90
22607;DHT22;11470;20.968;105.834;2022-07-22T08:44:10;26.40;1.00
22607;DHT22;11470;20.968;105.834;2022-07-22T08:49:28;26.10;1.00
22607;DHT22;11470;20.968;105.834;2022-07-22T08:54:36;25.90;1.00
22607;DHT22;11470;20.968;105.834;2022-07-22T08:59:57;25.80;1.00
22607;DHT22;11470;20.968;105.834;2022-07-22T09:05:12;25.70;76.60
22607;DHT22;11470;20.968;105.834;2022-07-22T09:10:51;25.70;99.90
22607;DHT22;11470;20.968;105.834;2022-07-22T09:16:46;25.80;99.90
22607;DHT22;11470;20.968;105.834;2022-07-22T09:22:43;25.90;99.90
22607;DHT22;11470;20.968;105.834;2022-07-22T09:28:09;25.80;1.00
22607;DHT22;11470;20.968;105.834;2022-07-22T09:33:36;25.80;75.70
22607;DHT22;11470;20.968;105.834;2022-07-22T09:39:01;25.80;1.00
22607;DHT22;11470;20.968;105.834;2022-07-22T09:44:35;25.90;99.90
22607;DHT22;11470;20.968;105.834;2022-07-22T09:50:23;25.80;99.90
22607;DHT22;11470;20.968;105.834;2022-07-22T09:55:47;25.90;99.90
22607;DHT22;11470;20.968;105.834;2022-07-22T10:00:56;25.90;99.90
22607;DHT22;11470;20.968;105.834;2022-07-22T10:06:07;26.00;99.90
22607;DHT22;11470;20.968;105.834;2022-07-22T10:11:15;26.00;99.90
22607;DHT22;11470;20.968;105.834;2022-07-22T10:16:21;26.00;28.10
22607;DHT22;11470;20.968;105.834;2022-07-22T10:21:35;26.00;1.00
22607;DHT22;11470;20.968;105.834;2022-07-22T10:26:54;26.00;1.00
22607;DHT22;11470;20.968;105.834;2022-07-22T10:43:03;26.10;1.00
22607;DHT22;11470;20.968;105.834;2022-07-22T10:48:17;26.10;1.00
22607;DHT22;11470;20.968;105.834;2022-07-22T10:53:38;26.00;1.00
22607;DHT22;11470;20.968;105.834;2022-07-22T10:59:14;25.90;1.00
22607;DHT22;11470;20.968;105.834;2022-07-22T11:04:23;26.00;1.00
22607;DHT22;11470;20.968;105.834;2022-07-22T11:09:33;26.00;1.00
22607;DHT22;11470;20.968;105.834;2022-07-22T11:14:39;26.10;1.00
22607;DHT22;11470;20.968;105.834;2022-07-22T11:19:45;26.00;1.00
22607;DHT22;11470;20.968;105.834;2022-07-22T11:24:50;26.00;1.00
22607;DHT22;11470;20.968;105.834;2022-07-22T11:29:55;26.00;1.00
22607;DHT22;11470;20.968;105.834;2022-07-22T11:35:02;26.00;1.00
22607;DHT22;11470;20.968;105.834;2022-07-22T11:40:11;26.10;1.00
22607;DHT22;11470;20.968;105.834;2022-07-22T11:45:17;26.10;1.00
22607;DHT22;11470;20.968;105.834;2022-07-22T11:50:32;26.10;1.00
22607;DHT22;11470;20.968;105.834;2022-07-22T11:55:38;26.20;1.00
22607;DHT22;11470;20.968;105.834;2022-07-22T12:00:44;26.30;99.90
22607;DHT22;11470;20.968;105.834;2022-07-22T12:05:50;26.30;99.90
22607;DHT22;11470;20.968;105.834;2022-07-22T12:10:56;26.30;99.90
22607;DHT22;11470;20.968;105.834;2022-07-22T12:16:17;26.40;99.90
22607;DHT22;11470;20.968;105.834;2022-07-22T12:27:02;26.40;99.90
22607;DHT22;11470;20.968;105.834;2022-07-22T12:32:18;26.40;99.90
22607;DHT22;11470;20.968;105.834;2022-07-22T12:37:44;26.30;99.90
22607;DHT22;11470;20.968;105.834;2022-07-22T12:42:59;26.30;99.90
22607;DHT22;11470;20.968;105.834;2022-07-22T12:48:16;26.30;99.90
22607;DHT22;11470;20.968;105.834;2022-07-22T12:53:23;26.30;97.30
22607;DHT22;11470;20.968;105.834;2022-07-22T12:58:30;26.30;99.90
22607;DHT22;11470;20.968;105.834;2022-07-22T13:03:51;26.30;99.90
22607;DHT22;11470;20.968;105.834;2022-07-22T13:08:58;26.30;96.00
22607;DHT22;11470;20.968;105.834;2022-07-22T13:14:03;26.30;99.90
22607;DHT22;11470;20.968;105.834;2022-07-22T13:19:08;26.30;99.90
22607;DHT22;11470;20.968;105.834;2022-07-22T13:24:21;26.30;99.90
22607;DHT22;11470;20.968;105.834;2022-07-22T13:29:27;26.30;99.90
22607;DHT22;11470;20.968;105.834;2022-07-22T13:34:32;26.30;99.90
22607;DHT22;11470;20.968;105.834;2022-07-22T13:39:38;26.40;99.90
22607;DHT22;11470;20.968;105.834;2022-07-22T13:44:49;26.40;99.90
22607;DHT22;11470;20.968;105.834;2022-07-22T13:49:56;26.40;91.90
22607;DHT22;11470;20.968;105.834;2022-07-22T13:55:02;26.40;55.70
22607;DHT22;11470;20.968;105.834;2022-07-22T14:00:10;26.40;97.70
22607;DHT22;11470;20.968;105.834;2022-07-22T14:05:17;26.40;93.10
22607;DHT22;11470;20.968;105.834;2022-07-22T14:10:23;26.40;51.00
22607;DHT22;11470;20.968;105.834;2022-07-22T14:15:29;26.40;41.00
22607;DHT22;11470;20.968;105.834;2022-07-22T14:20:47;26.50;2.00
22607;DHT22;11470;20.968;105.834;2022-07-22T14:25:53;26.40;1.00
22607;DHT22;11470;20.968;105.834;2022-07-22T14:30:58;26.50;1.00
22607;DHT22;11470;20.968;105.834;2022-07-22T14:36:04;26.40;1.00
22607;DHT22;11470;20.968;105.834;2022-07-22T14:41:09;26.40;13.20
22607;DHT22;11470;20.968;105.834;2022-07-22T14:46:16;26.40;1.00
22607;DHT22;11470;20.968;105.834;2022-07-22T14:51:22;26.50;1.00
22607;DHT22;11470;20.968;105.834;2022-07-22T14:56:28;26.30;28.00
22607;DHT22;11470;20.968;105.834;2022-07-22T15:01:37;26.30;1.00
22607;DHT22;11470;20.968;105.834;2022-07-22T15:06:46;26.30;1.00
22607;DHT22;11470;20.968;105.834;2022-07-22T15:12:14;26.40;1.00
22607;DHT22;11470;20.968;105.834;2022-07-22T15:17:40;26.50;1.00
22607;DHT22;11470;20.968;105.834;2022-07-22T15:22:53;26.50;1.00
22607;DHT22;11470;20.968;105.834;2022-07-22T15:28:05;26.50;1.00
22607;DHT22;11470;20.968;105.834;2022-07-22T15:33:34;26.50;1.00
22607;DHT22;11470;20.968;105.834;2022-07-22T15:38:41;26.50;1.00
22607;DHT22;11470;20.968;105.834;2022-07-22T15:43:50;26.50;1.00
22607;DHT22;11470;20.968;105.834;2022-07-22T15:49:13;26.50;1.00
22607;DHT22;11470;20.968;105.834;2022-07-22T15:54:25;26.50;1.00
22607;DHT22;11470;20.968;105.834;2022-07-22T15:59:31;26.50;1.00
22607;DHT22;11470;20.968;105.834;2022-07-22T16:04:48;26.50;1.00
22607;DHT22;11470;20.968;105.834;2022-07-22T16:09:53;26.50;1.00
22607;DHT22;11470;20.968;105.834;2022-07-22T16:14:58;26.50;1.00
22607;DHT22;11470;20.968;105.834;2022-07-22T16:20:05;26.60;1.00
22607;DHT22;11470;20.968;105.834;2022-07-22T16:25:13;26.70;1.00
22607;DHT22;11470;20.968;105.834;2022-07-22T16:30:18;26.70;1.00
22607;DHT22;11470;20.968;105.834;2022-07-22T16:35:27;26.60;1.00
22607;DHT22;11470;20.968;105.834;2022-07-22T16:40:33;26.60;1.00
22607;DHT22;11470;20.968;105.834;2022-07-22T16:45:38;26.70;1.00
22607;DHT22;11470;20.968;105.834;2022-07-22T16:50:43;26.70;1.00
22607;DHT22;11470;20.968;105.834;2022-07-22T16:55:48;26.70;1.00
22607;DHT22;11470;20.968;105.834;2022-07-22T17:00:53;26.70;1.00
22607;DHT22;11470;20.968;105.834;2022-07-22T17:05:58;26.70;1.00
22607;DHT22;11470;20.968;105.834;2022-07-22T17:11:05;26.70;1.00
22607;DHT22;11470;20.968;105.834;2022-07-22T17:16:11;26.80;1.00
22607;DHT22;11470;20.968;105.834;2022-07-22T17:21:16;26.80;1.00
22607;DHT22;11470;20.968;105.834;2022-07-22T17:26:22;26.80;1.00
22607;DHT22;11470;20.968;105.834;2022-07-22T17:31:27;26.90;1.00
22607;DHT22;11470;20.968;105.834;2022-07-22T17:36:33;26.90;1.00
22607;DHT22;11470;20.968;105.834;2022-07-22T17:41:38;26.80;1.00
22607;DHT22;11470;20.968;105.834;2022-07-22T17:46:44;26.70;1.00
22607;DHT22;11470;20.968;105.834;2022-07-22T17:51:51;26.70;1.00
22607;DHT22;11470;20.968;105.834;2022-07-22T17:56:59;26.60;1.00
22607;DHT22;11470;20.968;105.834;2022-07-22T18:02:05;26.60;1.00
22607;DHT22;11470;20.968;105.834;2022-07-22T18:07:10;26.60;1.00
22607;DHT22;11470;20.968;105.834;2022-07-22T18:12:15;26.60;1.00
22607;DHT22;11470;20.968;105.834;2022-07-22T18:17:20;26.50;1.00
22607;DHT22;11470;20.968;105.834;2022-07-22T18:22:26;26.50;1.00
22607;DHT22;11470;20.968;105.834;2022-07-22T18:27:31;26.50;1.00
22607;DHT22;11470;20.968;105.834;2022-07-22T18:32:37;26.50;1.00
22607;DHT22;11470;20.968;105.834;2022-07-22T18:37:42;26.50;1.40
22607;DHT22;11470;20.968;105.834;2022-07-22T18:42:48;26.50;1.00
22607;DHT22;11470;20.968;105.834;2022-07-22T18:47:53;26.50;1.00
22607;DHT22;11470;20.968;105.834;2022-07-22T18:52:58;26.50;1.00
22607;DHT22;11470;20.968;105.834;2022-07-22T18:58:03;26.50;1.00
22607;DHT22;11470;20.968;105.834;2022-07-22T19:03:08;26.50;1.00
22607;DHT22;11470;20.968;105.834;2022-07-22T19:08:17;26.40;1.00
22607;DHT22;11470;20.968;105.834;2022-07-22T19:13:25;26.50;1.00
22607;DHT22;11470;20.968;105.834;2022-07-22T19:18:31;26.50;1.00
22607;DHT22;11470;20.968;105.834;2022-07-22T19:23:36;26.50;1.00
22607;DHT22;11470;20.968;105.834;2022-07-22T19:28:42;26.60;1.00
22607;DHT22;11470;20.968;105.834;2022-07-22T19:33:47;26.50;1.00
22607;DHT22;11470;20.968;105.834;2022-07-22T19:38:53;26.50;1.00
22607;DHT22;11470;20.968;105.834;2022-07-22T19:43:58;26.50;1.00
22607;DHT22;11470;20.968;105.834;2022-07-22T19:49:04;26.50;1.00
22607;DHT22;11470;20.968;105.834;2022-07-22T19:54:10;26.50;1.00
22607;DHT22;11470;20.968;105.834;2022-07-22T19:59:17;26.50;1.00
22607;DHT22;11470;20.968;105.834;2022-07-22T20:04:22;26.40;1.00
22607;DHT22;11470;20.968;105.834;2022-07-22T20:09:27;26.30;1.00
22607;DHT22;11470;20.968;105.834;2022-07-22T20:14:33;26.20;77.80
22607;DHT22;11470;20.968;105.834;2022-07-22T20:19:38;26.10;99.90
22607;DHT22;11470;20.968;105.834;2022-07-22T20:24:44;26.10;99.90
22607;DHT22;11470;20.968;105.834;2022-07-22T20:29:49;26.10;99.90
22607;DHT22;11470;20.968;105.834;2022-07-22T20:34:54;26.10;99.90
22607;DHT22;11470;20.968;105.834;2022-07-22T20:39:59;26.10;99.90
22607;DHT22;11470;20.968;105.834;2022-07-22T20:45:05;26.10;99.90
22607;DHT22;11470;20.968;105.834;2022-07-22T20:50:10;26.10;99.90
22607;DHT22;11470;20.968;105.834;2022-07-22T20:55:16;26.10;99.90
22607;DHT22;11470;20.968;105.834;2022-07-22T21:00:21;26.10;99.90
22607;DHT22;11470;20.968;105.834;2022-07-22T21:05:27;26.10;99.90
22607;DHT22;11470;20.968;105.834;2022-07-22T21:10:32;26.10;99.90
22607;DHT22;11470;20.968;105.834;2022-07-22T21:15:37;26.20;99.90
22607;DHT22;11470;20.968;105.834;2022-07-22T21:20:43;26.20;99.90
22607;DHT22;11470;20.968;105.834;2022-07-22T21:25:48;26.20;99.90
22607;DHT22;11470;20.968;105.834;2022-07-22T21:30:53;26.20;90.80
22607;DHT22;11470;20.968;105.834;2022-07-22T21:35:58;26.20;58.80
22607;DHT22;11470;20.968;105.834;2022-07-22T21:41:04;26.30;89.30
22607;DHT22;11470;20.968;105.834;2022-07-22T21:46:09;26.30;38.30
22607;DHT22;11470;20.968;105.834;2022-07-22T21:51:14;26.30;1.00
22607;DHT22;11470;20.968;105.834;2022-07-22T21:56:20;26.40;1.00
22607;DHT22;11470;20.968;105.834;2022-07-22T22:01:43;26.50;1.00
22607;DHT22;11470;20.968;105.834;2022-07-22T22:06:50;26.50;1.00
22607;DHT22;11470;20.968;105.834;2022-07-22T22:11:55;26.50;1.00
22607;DHT22;11470;20.968;105.834;2022-07-22T22:17:01;26.50;1.00
22607;DHT22;11470;20.968;105.834;2022-07-22T22:22:09;26.40;1.00
22607;DHT22;11470;20.968;105.834;2022-07-22T22:27:14;26.40;1.00
22607;DHT22;11470;20.968;105.834;2022-07-22T22:32:19;26.40;1.00
22607;DHT22;11470;20.968;105.834;2022-07-22T22:37:25;26.40;1.00
22607;DHT22;11470;20.968;105.834;2022-07-22T22:42:30;26.40;1.00
22607;DHT22;11470;20.968;105.834;2022-07-22T22:47:35;26.40;1.00
22607;DHT22;11470;20.968;105.834;2022-07-22T22:52:40;26.50;1.00
22607;DHT22;11470;20.968;105.834;2022-07-22T22:57:46;26.40;1.00
22607;DHT22;11470;20.968;105.834;2022-07-22T23:02:51;26.40;1.00
22607;DHT22;11470;20.968;105.834;2022-07-22T23:07:57;26.40;1.00
22607;DHT22;11470;20.968;105.834;2022-07-22T23:13:03;26.30;1.00
22607;DHT22;11470;20.968;105.834;2022-07-22T23:18:08;26.30;1.00
22607;DHT22;11470;20.968;105.834;2022-07-22T23:23:19;26.40;1.00
22607;DHT22;11470;20.968;105.834;2022-07-22T23:28:26;26.50;1.00
22607;DHT22;11470;20.968;105.834;2022-07-22T23:33:31;26.70;1.00
22607;DHT22;11470;20.968;105.834;2022-07-22T23:38:36;26.90;1.00
22607;DHT22;11470;20.968;105.834;2022-07-22T23:43:41;27.20;1.00
22607;DHT22;11470;20.968;105.834;2022-07-22T23:48:47;27.40;99.90
22607;DHT22;11470;20.968;105.834;2022-07-22T23:53:52;27.60;99.90
22607;DHT22;11470;20.968;105.834;2022-07-22T23:58:58;27.60;99.90
